createdAt,value
2022-12-03T00:01:28.067Z,12.13
2022-12-03T00:03:58.740Z,12.50
2022-12-03T00:06:31.462Z,14.45
2022-12-03T00:09:04.696Z,13.02
2022-12-03T00:11:34.264Z,13.18
2022-12-03T00:14:02.888Z,12.75
2022-12-03T00:16:31.233Z,13.82
2022-12-03T00:19:00.841Z,13.02
2022-12-03T00:21:29.112Z,12.50
2022-12-03T00:23:57.268Z,12.80
2022-12-03T00:26:27.214Z,13.50
2022-12-03T00:28:56.113Z,13.43
2022-12-03T00:31:25.846Z,13.60
2022-12-03T00:33:55.937Z,13.25
2022-12-03T00:36:24.562Z,12.35
2022-12-03T00:38:52.990Z,13.32
2022-12-03T00:41:23.503Z,13.73
2022-12-03T00:43:57.434Z,12.73
2022-12-03T00:46:25.959Z,12.80
2022-12-03T00:48:54.783Z,14.75
2022-12-03T00:51:25.760Z,13.43
2022-12-03T00:53:55.308Z,13.15
2022-12-03T00:56:23.768Z,13.02
2022-12-03T00:58:54.765Z,13.10
2022-12-03T01:01:23.709Z,13.68
2022-12-03T01:03:52.493Z,13.50
2022-12-03T01:06:20.899Z,13.32
2022-12-03T01:08:50.501Z,12.90
2022-12-03T01:11:36.961Z,13.88
2022-12-03T01:14:12.731Z,13.77
2022-12-03T01:16:42.029Z,13.68
2022-12-03T01:19:16.231Z,13.30
2022-12-03T01:21:45.624Z,13.25
2022-12-03T01:24:14.824Z,12.48
2022-12-03T01:26:43.280Z,13.52
2022-12-03T01:29:13.192Z,13.73
2022-12-03T01:31:56.062Z,12.48
2022-12-03T01:34:27.611Z,11.80
2022-12-03T01:36:56.015Z,13.55
2022-12-03T01:39:25.129Z,13.13
2022-12-03T01:41:55.510Z,12.52
2022-12-03T01:44:28.353Z,13.43
2022-12-03T01:47:00.713Z,12.75
2022-12-03T01:49:32.875Z,11.93
2022-12-03T01:52:01.800Z,13.07
2022-12-03T01:54:38.915Z,12.95
2022-12-03T01:57:19.646Z,13.40
2022-12-03T01:59:50.536Z,12.40
2022-12-03T02:02:24.603Z,12.65
2022-12-03T02:04:55.873Z,12.45
2022-12-03T02:07:27.713Z,12.77
2022-12-03T02:09:59.938Z,12.00
2022-12-03T02:12:33.833Z,13.07
2022-12-03T02:15:05.240Z,12.80
2022-12-03T02:17:34.287Z,12.32
2022-12-03T02:20:05.196Z,13.95
2022-12-03T02:22:42.228Z,12.68
2022-12-03T02:25:16.322Z,12.52
2022-12-03T02:27:45.868Z,12.70
2022-12-03T02:32:46.041Z,12.43
2022-12-03T02:35:16.250Z,12.85
2022-12-03T02:37:48.713Z,13.05
2022-12-03T02:40:23.211Z,12.60
2022-12-03T02:42:57.014Z,12.50
2022-12-03T02:45:31.288Z,12.73
2022-12-03T02:48:02.304Z,12.60
2022-12-03T02:50:34.014Z,12.02
2022-12-03T02:53:04.743Z,12.18
2022-12-03T02:55:37.357Z,13.02
2022-12-03T02:58:07.449Z,13.35
2022-12-03T03:00:37.680Z,12.52
2022-12-03T03:03:08.973Z,13.20
2022-12-03T03:05:41.576Z,13.32
2022-12-03T03:08:13.041Z,12.85
2022-12-03T03:10:44.844Z,13.27
2022-12-03T03:13:15.880Z,14.07
2022-12-03T03:15:44.755Z,14.15
2022-12-03T03:18:15.520Z,12.85
2022-12-03T03:20:59.265Z,13.63
2022-12-03T03:23:28.867Z,13.35
2022-12-03T03:26:01.620Z,15.10
2022-12-03T03:28:37.783Z,11.80
2022-12-03T03:31:08.705Z,14.32
2022-12-03T03:33:40.346Z,12.75
2022-12-03T03:36:10.906Z,12.93
2022-12-03T03:38:39.961Z,13.83
2022-12-03T03:41:15.081Z,13.73
2022-12-03T03:43:46.538Z,13.70
2022-12-03T03:46:16.038Z,13.82
2022-12-03T03:48:45.068Z,13.10
2022-12-03T03:51:15.215Z,12.90
2022-12-03T03:53:47.959Z,16.45
2022-12-03T03:56:21.015Z,15.75
2022-12-03T03:58:51.302Z,13.05
2022-12-03T04:01:21.311Z,15.73
2022-12-03T04:03:50.793Z,16.70
2022-12-03T04:06:19.614Z,28.23
2022-12-03T04:08:47.769Z,30.13
2022-12-03T04:11:38.951Z,18.65
2022-12-03T04:14:10.135Z,15.13
2022-12-03T04:16:45.593Z,15.45
2022-12-03T04:19:14.022Z,21.30
2022-12-03T04:21:59.912Z,24.40
2022-12-03T04:24:28.888Z,18.30
2022-12-03T04:27:16.134Z,27.38
2022-12-03T04:29:45.950Z,27.52
2022-12-03T04:32:40.984Z,30.42
2022-12-03T04:38:23.830Z,33.78
2022-12-03T04:41:05.018Z,39.38
2022-12-03T04:43:55.841Z,31.48
2022-12-03T04:46:24.044Z,30.65
2022-12-03T04:48:52.141Z,32.17
2022-12-03T04:51:20.198Z,27.75
2022-12-03T04:53:48.327Z,29.88
2022-12-03T04:56:16.366Z,27.17
2022-12-03T04:58:45.991Z,26.65
2022-12-03T05:01:14.278Z,25.95
2022-12-03T05:03:43.006Z,26.85
2022-12-03T05:06:12.111Z,27.33
2022-12-03T05:08:40.196Z,23.45
2022-12-03T05:11:08.446Z,24.02
2022-12-03T05:13:36.978Z,23.55
2022-12-03T05:16:06.720Z,26.13
2022-12-03T05:18:35.151Z,24.45
2022-12-03T05:21:03.397Z,22.88
2022-12-03T05:23:31.555Z,21.42
2022-12-03T05:25:59.699Z,21.75
2022-12-03T05:28:28.153Z,21.65
2022-12-03T05:30:56.693Z,24.20
2022-12-03T05:33:26.346Z,22.98
2022-12-03T05:35:54.559Z,24.08
2022-12-03T05:38:22.691Z,19.63
2022-12-03T05:40:50.865Z,20.90
2022-12-03T05:43:18.254Z,21.77
2022-12-03T05:45:46.529Z,20.15
2022-12-03T05:48:16.837Z,21.13
2022-12-03T05:50:47.199Z,20.77
2022-12-03T05:53:17.146Z,20.02
2022-12-03T05:55:45.381Z,19.38
2022-12-03T05:58:13.815Z,20.88
2022-12-03T06:00:43.068Z,21.00
2022-12-03T06:03:11.649Z,20.05
2022-12-03T06:05:40.046Z,18.38
2022-12-03T06:08:09.828Z,19.58
2022-12-03T06:11:46.514Z,18.67
2022-12-03T06:14:14.663Z,21.08
2022-12-03T06:16:42.810Z,17.95
2022-12-03T06:19:11.107Z,19.92
2022-12-03T06:21:40.854Z,20.77
2022-12-03T06:24:11.379Z,18.38
2022-12-03T06:26:39.431Z,21.80
2022-12-03T06:29:07.772Z,20.60
2022-12-03T06:31:35.886Z,20.17
2022-12-03T06:34:04.068Z,20.30
2022-12-03T06:36:32.195Z,19.05
2022-12-03T06:39:00.327Z,18.52
2022-12-03T06:41:29.807Z,19.70
2022-12-03T06:43:57.892Z,17.20
2022-12-03T06:46:26.078Z,18.77
2022-12-03T06:48:54.406Z,19.73
2022-12-03T06:51:22.562Z,19.83
2022-12-03T06:53:50.652Z,18.17
2022-12-03T06:56:22.333Z,17.77
2022-12-03T06:58:52.363Z,16.48
2022-12-03T07:01:23.728Z,18.05
2022-12-03T07:03:52.285Z,21.88
2022-12-03T07:06:20.536Z,16.77
2022-12-03T07:08:49.790Z,16.58
2022-12-03T07:11:33.494Z,18.25
2022-12-03T07:14:06.380Z,17.42
2022-12-03T07:16:35.089Z,19.73
2022-12-03T07:19:03.347Z,15.20
2022-12-03T07:21:32.216Z,22.33
2022-12-03T07:24:00.267Z,14.85
2022-12-03T07:26:28.586Z,23.20
2022-12-03T07:28:57.014Z,19.27
2022-12-03T07:31:26.668Z,16.77
2022-12-03T07:33:54.971Z,16.65
2022-12-03T07:36:23.411Z,16.58
2022-12-03T07:38:52.062Z,15.75
2022-12-03T07:41:20.476Z,16.10
2022-12-03T07:43:48.875Z,16.35
2022-12-03T07:46:17.217Z,16.92
2022-12-03T07:48:46.683Z,16.27
2022-12-03T07:51:15.604Z,16.58
2022-12-03T07:53:44.095Z,17.20
2022-12-03T07:56:12.238Z,16.13
2022-12-03T07:58:40.443Z,16.27
2022-12-03T08:01:10.429Z,15.82
2022-12-03T08:03:38.567Z,17.30
2022-12-03T08:06:08.461Z,14.95
2022-12-03T08:08:36.802Z,15.43
2022-12-03T08:11:05.986Z,16.83
2022-12-03T08:13:35.633Z,17.17
2022-12-03T08:16:17.064Z,21.17
2022-12-03T08:18:46.123Z,14.98
2022-12-03T08:21:17.562Z,18.20
2022-12-03T08:23:48.652Z,15.57
2022-12-03T08:26:24.184Z,14.88
2022-12-03T08:28:53.274Z,17.65
2022-12-03T08:31:29.319Z,15.30
2022-12-03T08:34:13.096Z,15.98
2022-12-03T08:36:43.554Z,18.80
2022-12-03T08:39:30.889Z,16.98
2022-12-03T08:42:29.101Z,15.23
2022-12-03T08:45:21.521Z,15.23
2022-12-03T08:47:49.830Z,16.02
2022-12-03T08:50:28.415Z,14.68
2022-12-03T08:53:09.273Z,17.25
2022-12-03T08:55:40.022Z,15.23
2022-12-03T08:58:19.274Z,17.70
2022-12-03T09:00:47.488Z,15.25
2022-12-03T09:03:19.761Z,17.45
2022-12-03T09:05:48.130Z,18.30
2022-12-03T09:08:18.038Z,17.92
2022-12-03T09:10:46.710Z,14.43
2022-12-03T09:13:14.923Z,21.30
2022-12-03T09:15:43.137Z,14.32
2022-12-03T09:18:11.230Z,15.27
2022-12-03T09:20:39.231Z,14.07
2022-12-03T09:23:08.107Z,17.50
2022-12-03T09:25:52.708Z,16.98
2022-12-03T09:28:23.451Z,14.50
2022-12-03T09:30:51.627Z,14.98
2022-12-03T09:33:19.859Z,14.52
2022-12-03T09:35:53.168Z,18.70
2022-12-03T09:38:21.699Z,13.32
2022-12-03T09:40:50.145Z,17.55
2022-12-03T09:43:20.454Z,15.75
2022-12-03T09:45:49.436Z,14.55
2022-12-03T09:48:20.065Z,14.32
2022-12-03T09:50:48.906Z,16.23
2022-12-03T09:53:22.020Z,14.75
2022-12-03T09:55:50.985Z,16.25
2022-12-03T09:58:21.203Z,13.68
2022-12-03T10:00:52.394Z,15.13
2022-12-03T10:03:29.505Z,16.55
2022-12-03T10:05:58.939Z,15.05
2022-12-03T10:08:32.153Z,16.70
2022-12-03T10:11:01.460Z,13.38
2022-12-03T10:13:36.015Z,16.60
2022-12-03T10:16:04.513Z,13.63
2022-12-03T10:18:41.440Z,13.02
2022-12-03T10:21:18.364Z,14.70
2022-12-03T10:23:54.944Z,17.27
2022-12-03T10:26:39.008Z,14.32
2022-12-03T10:29:13.811Z,12.68
2022-12-03T10:31:42.091Z,12.82
2022-12-03T10:34:10.740Z,13.23
2022-12-03T10:36:39.177Z,12.48
2022-12-03T10:39:10.943Z,11.85
2022-12-03T10:41:40.194Z,13.15
2022-12-03T10:44:17.036Z,12.63
2022-12-03T10:46:46.545Z,13.13
2022-12-03T10:49:18.711Z,12.90
2022-12-03T10:51:48.793Z,12.68
2022-12-03T10:54:20.536Z,11.85
2022-12-03T10:59:22.105Z,13.48
2022-12-03T11:01:51.066Z,11.95
2022-12-03T11:04:24.625Z,12.18
2022-12-03T11:06:52.911Z,11.63
2022-12-03T11:09:23.467Z,12.93
2022-12-03T11:11:51.998Z,11.75
2022-12-03T11:15:05.626Z,11.18
2022-12-03T11:17:47.884Z,11.27
2022-12-03T11:21:07.790Z,12.45
2022-12-03T11:24:04.818Z,11.48
2022-12-03T11:27:24.715Z,12.40
2022-12-03T11:30:00.969Z,12.60
2022-12-03T11:33:08.901Z,12.50
2022-12-03T11:36:16.121Z,13.23
2022-12-03T11:38:58.349Z,13.55
2022-12-03T11:41:33.053Z,12.27
2022-12-03T11:44:26.359Z,12.65
2022-12-03T11:46:55.252Z,10.73
2022-12-03T11:49:29.875Z,11.13
2022-12-03T11:51:59.937Z,11.43
2022-12-03T11:54:28.479Z,10.93
2022-12-03T11:56:57.227Z,12.07
2022-12-03T11:59:25.498Z,11.68
2022-12-03T12:01:53.667Z,12.40
2022-12-03T12:04:31.039Z,11.07
2022-12-03T12:07:01.150Z,10.70
2022-12-03T12:09:54.071Z,11.50
2022-12-03T12:12:30.680Z,12.38
2022-12-03T12:14:59.836Z,11.13
2022-12-03T12:17:36.728Z,12.75
2022-12-03T12:20:29.049Z,12.98
2022-12-03T12:23:22.067Z,11.15
2022-12-03T12:25:54.180Z,11.40
2022-12-03T12:28:24.238Z,11.60
2022-12-03T12:30:57.050Z,11.65
2022-12-03T12:33:26.681Z,10.68
2022-12-03T12:35:55.058Z,10.77
2022-12-03T12:38:25.217Z,11.00
2022-12-03T12:40:56.647Z,10.75
2022-12-03T12:43:26.744Z,10.40
2022-12-03T12:45:56.642Z,10.98
2022-12-03T12:48:27.731Z,11.00
2022-12-03T12:51:01.360Z,10.85
2022-12-03T12:53:33.034Z,11.95
2022-12-03T12:58:33.515Z,10.68
2022-12-03T13:01:06.139Z,10.90
2022-12-03T13:03:37.720Z,11.30
2022-12-03T13:06:06.443Z,12.50
2022-12-03T13:08:41.018Z,10.88
2022-12-03T13:11:24.174Z,10.52
2022-12-03T13:13:53.244Z,10.30
2022-12-03T13:16:27.533Z,10.52
2022-12-03T13:18:57.795Z,10.40
2022-12-03T13:21:38.410Z,10.15
2022-12-03T13:24:27.787Z,10.52
2022-12-03T13:26:56.338Z,10.00
2022-12-03T13:29:25.031Z,10.90
2022-12-03T13:31:55.620Z,11.00
2022-12-03T13:34:25.737Z,11.00
2022-12-03T13:36:58.181Z,9.80
2022-12-03T13:39:34.466Z,10.52
2022-12-03T13:42:33.924Z,10.73
2022-12-03T13:45:03.943Z,10.77
2022-12-03T13:47:33.503Z,10.40
2022-12-03T13:50:04.852Z,10.43
2022-12-03T13:52:35.773Z,9.77
2022-12-03T13:55:08.721Z,10.23
2022-12-03T13:57:36.978Z,10.48
2022-12-03T14:00:06.095Z,12.00
2022-12-03T14:02:34.604Z,9.98
2022-12-03T14:05:03.232Z,11.02
2022-12-03T14:07:36.136Z,10.10
2022-12-03T14:10:06.691Z,10.48
2022-12-03T14:12:34.747Z,9.98
2022-12-03T14:15:03.535Z,10.20
2022-12-03T14:17:32.070Z,24.83
2022-12-03T14:20:01.730Z,12.13
2022-12-03T14:22:30.838Z,11.63
2022-12-03T14:24:59.199Z,9.07
2022-12-03T14:27:28.704Z,13.20
2022-12-03T14:29:57.407Z,13.20
2022-12-03T14:32:25.676Z,14.35
2022-12-03T14:34:53.787Z,14.18
2022-12-03T14:37:22.356Z,10.98
2022-12-03T14:39:50.584Z,13.07
2022-12-03T14:42:18.765Z,11.50
2022-12-03T14:44:49.900Z,35.47
2022-12-03T14:47:19.838Z,13.82
2022-12-03T14:49:48.085Z,12.98
2022-12-03T14:52:16.355Z,16.25
2022-12-03T14:54:44.676Z,13.95
2022-12-03T14:57:14.244Z,13.15
2022-12-03T14:59:43.077Z,13.50
2022-12-03T15:02:13.988Z,10.77
2022-12-03T15:04:42.735Z,11.13
2022-12-03T15:07:11.112Z,12.18
2022-12-03T15:09:39.363Z,11.95
2022-12-03T15:12:08.448Z,11.10
2022-12-03T15:14:36.778Z,9.80
2022-12-03T15:17:05.135Z,11.73
2022-12-03T15:19:34.740Z,12.00
2022-12-03T15:22:03.069Z,11.88
2022-12-03T15:24:31.221Z,10.98
2022-12-03T15:26:59.330Z,11.40
2022-12-03T15:29:29.016Z,10.15
2022-12-03T15:31:59.353Z,11.60
2022-12-03T15:34:27.671Z,11.18
2022-12-03T15:36:57.278Z,13.75
2022-12-03T15:39:30.620Z,11.63
2022-12-03T15:41:58.908Z,11.80
2022-12-03T15:44:26.939Z,11.90
2022-12-03T15:46:55.055Z,9.80
2022-12-03T15:49:23.432Z,10.70
2022-12-03T15:51:51.550Z,14.60
2022-12-03T15:54:21.238Z,14.38
2022-12-03T15:56:52.797Z,10.38
2022-12-03T15:59:28.050Z,17.35
2022-12-03T16:01:56.475Z,13.82
2022-12-03T16:04:24.631Z,13.02
2022-12-03T16:06:52.973Z,14.93
2022-12-03T16:09:27.163Z,11.75
2022-12-03T16:11:56.013Z,13.90
2022-12-03T16:14:24.156Z,20.95
2022-12-03T16:16:52.561Z,12.25
2022-12-03T16:19:20.985Z,10.73
2022-12-03T16:21:49.273Z,15.20
2022-12-03T16:24:17.480Z,10.27
2022-12-03T16:26:47.002Z,11.20
2022-12-03T16:29:15.602Z,10.45
2022-12-03T16:31:43.857Z,9.65
2022-12-03T16:34:12.143Z,10.60
2022-12-03T16:36:40.345Z,11.18
2022-12-03T16:39:08.440Z,12.13
2022-12-03T16:41:36.578Z,11.85
2022-12-03T16:44:06.538Z,12.30
2022-12-03T16:46:34.781Z,12.02
2022-12-03T16:49:04.158Z,11.68
2022-12-03T16:51:32.320Z,14.45
2022-12-03T16:54:00.340Z,10.73
2022-12-03T16:56:28.842Z,13.43
2022-12-03T16:58:57.155Z,11.70
2022-12-03T17:01:26.847Z,14.52
2022-12-03T17:03:55.308Z,13.23
2022-12-03T17:06:23.503Z,12.07
2022-12-03T17:08:51.620Z,11.35
2022-12-03T17:11:20.271Z,13.88
2022-12-03T17:13:48.266Z,11.65
2022-12-03T17:16:16.373Z,14.25
2022-12-03T17:18:46.135Z,12.50
2022-12-03T17:21:14.650Z,10.60
2022-12-03T17:23:43.077Z,11.57
2022-12-03T17:26:11.562Z,10.57
2022-12-03T17:28:39.690Z,11.30
2022-12-03T17:31:11.872Z,11.93
2022-12-03T17:33:40.662Z,12.45
2022-12-03T17:36:10.867Z,14.25
2022-12-03T17:38:39.615Z,10.43
2022-12-03T17:41:08.484Z,26.35
2022-12-03T17:43:36.907Z,13.25
2022-12-03T17:46:09.464Z,14.48
2022-12-03T17:48:40.559Z,11.50
2022-12-03T17:51:10.199Z,10.93
2022-12-03T17:53:38.252Z,15.95
2022-12-03T17:56:07.830Z,16.60
2022-12-03T17:58:36.208Z,22.98
2022-12-03T18:01:05.719Z,24.75
2022-12-03T18:03:33.981Z,26.73
2022-12-03T18:06:02.158Z,25.55
2022-12-03T18:08:34.448Z,25.58
2022-12-03T18:11:02.559Z,26.17
2022-12-03T18:13:30.789Z,28.73
2022-12-03T18:15:58.998Z,24.60
2022-12-03T18:18:27.075Z,29.17
2022-12-03T18:20:55.535Z,25.48
2022-12-03T18:23:23.875Z,25.88
2022-12-03T18:25:53.404Z,26.90
2022-12-03T18:28:21.842Z,25.90
2022-12-03T18:30:52.787Z,25.15
2022-12-03T18:33:21.460Z,25.58
2022-12-03T18:35:50.264Z,25.45
2022-12-03T18:38:19.471Z,25.10
2022-12-03T18:40:52.140Z,23.90
2022-12-03T18:43:21.641Z,24.02
2022-12-03T18:45:49.759Z,22.17
2022-12-03T18:48:21.306Z,23.60
2022-12-03T18:50:49.652Z,23.52
2022-12-03T18:53:19.489Z,21.73
2022-12-03T18:55:48.981Z,21.60
2022-12-03T18:58:17.222Z,19.80
2022-12-03T19:00:46.695Z,18.65
2022-12-03T19:03:15.242Z,20.98
2022-12-03T19:05:44.118Z,20.75
2022-12-03T19:08:17.887Z,17.67
2022-12-03T19:10:56.295Z,18.10
2022-12-03T19:13:30.146Z,18.63
2022-12-03T19:16:04.007Z,18.13
2022-12-03T19:18:34.346Z,18.23
2022-12-03T19:21:10.590Z,18.52
2022-12-03T19:23:40.811Z,20.35
2022-12-03T19:26:12.429Z,17.30
2022-12-03T19:28:41.539Z,19.85
2022-12-03T19:31:15.058Z,17.65
2022-12-03T19:33:44.866Z,17.02
2022-12-03T19:36:22.474Z,19.27
2022-12-03T19:38:56.891Z,16.38
2022-12-03T19:41:33.048Z,17.50
2022-12-03T19:44:04.022Z,18.55
2022-12-03T19:46:37.476Z,18.10
2022-12-03T19:49:07.264Z,18.13
2022-12-03T19:51:36.199Z,16.88
2022-12-03T19:54:05.365Z,17.60
2022-12-03T19:56:33.515Z,15.10
2022-12-03T19:59:01.598Z,17.63
2022-12-03T20:01:32.636Z,16.30
2022-12-03T20:04:03.814Z,15.45
2022-12-03T20:06:34.908Z,15.95
2022-12-03T20:09:05.874Z,15.55
2022-12-03T20:11:35.235Z,14.60
2022-12-03T20:14:05.746Z,14.48
2022-12-03T20:16:34.225Z,15.27
2022-12-03T20:19:06.212Z,14.73
2022-12-03T20:21:36.668Z,16.08
2022-12-03T20:24:06.493Z,16.77
2022-12-03T20:26:34.943Z,15.60
2022-12-03T20:29:03.023Z,14.48
2022-12-03T20:31:32.752Z,13.95
2022-12-03T20:34:03.855Z,17.33
2022-12-03T20:36:33.346Z,20.65
2022-12-03T20:39:03.860Z,20.48
2022-12-03T20:41:32.191Z,19.65
2022-12-03T20:44:00.426Z,15.45
2022-12-03T20:46:31.160Z,18.38
2022-12-03T20:48:59.736Z,17.60
2022-12-03T20:51:31.644Z,16.52
2022-12-03T20:54:00.739Z,17.35
2022-12-03T20:56:31.337Z,17.45
2022-12-03T20:59:01.245Z,20.40
2022-12-03T21:01:29.745Z,14.93
2022-12-03T21:03:58.639Z,18.40
2022-12-03T21:06:30.108Z,16.40
2022-12-03T21:11:30.859Z,15.85
2022-12-03T21:17:43.783Z,18.33
2022-12-03T21:20:16.617Z,23.10
2022-12-03T21:22:51.897Z,15.35
2022-12-03T21:25:20.138Z,19.50
2022-12-03T21:27:48.233Z,14.90
2022-12-03T21:30:16.818Z,15.45
2022-12-03T21:32:44.979Z,18.27
2022-12-03T21:35:13.459Z,14.93
2022-12-03T21:37:41.754Z,19.45
2022-12-03T21:40:12.164Z,16.77
2022-12-03T21:42:40.177Z,15.80
2022-12-03T21:45:08.867Z,14.90
2022-12-03T21:47:37.752Z,13.30
2022-12-03T21:50:08.845Z,13.45
2022-12-03T21:52:37.209Z,21.23
2022-12-03T21:55:06.518Z,14.40
2022-12-03T21:57:38.165Z,14.35
2022-12-03T22:00:09.695Z,15.20
2022-12-03T22:02:39.958Z,15.70
2022-12-03T22:05:09.131Z,14.88
2022-12-03T22:07:38.758Z,14.43
2022-12-03T22:10:09.090Z,13.25
2022-12-03T22:12:40.872Z,12.90
2022-12-03T22:15:14.890Z,12.07
2022-12-03T22:17:49.424Z,13.90
2022-12-03T22:20:17.805Z,14.38
2022-12-03T22:22:47.023Z,15.05
2022-12-03T22:25:15.262Z,15.85
2022-12-03T22:27:44.859Z,13.40
2022-12-03T22:30:13.452Z,13.23
2022-12-03T22:32:41.517Z,13.18
2022-12-03T22:35:10.215Z,14.20
2022-12-03T22:37:38.528Z,14.35
2022-12-03T22:40:07.964Z,13.50
2022-12-03T22:42:36.128Z,12.50
2022-12-03T22:45:06.699Z,13.57
2022-12-03T22:47:34.969Z,12.43
2022-12-03T22:50:03.462Z,13.20
2022-12-03T22:52:33.225Z,14.98
2022-12-03T22:55:01.398Z,13.48
2022-12-03T22:57:29.474Z,13.38
2022-12-03T22:59:57.743Z,12.82
2022-12-03T23:02:27.499Z,13.75
2022-12-03T23:04:56.854Z,13.68
2022-12-03T23:07:25.085Z,14.63
2022-12-03T23:09:54.118Z,15.88
2022-12-03T23:12:22.444Z,15.07
2022-12-03T23:14:53.906Z,12.23
2022-12-03T23:17:22.183Z,13.75
2022-12-03T23:19:52.103Z,12.20
2022-12-03T23:22:20.249Z,16.48
2022-12-03T23:24:51.330Z,15.77
2022-12-03T23:27:19.640Z,13.25
2022-12-03T23:29:47.814Z,13.85
2022-12-03T23:32:16.952Z,15.48
2022-12-03T23:34:48.669Z,15.27
2022-12-03T23:37:18.402Z,16.52
2022-12-03T23:39:49.007Z,13.85
2022-12-03T23:42:17.199Z,12.65
2022-12-03T23:44:45.362Z,12.90
2022-12-03T23:47:13.546Z,13.07
2022-12-03T23:49:41.999Z,12.75
2022-12-03T23:52:10.202Z,13.25
2022-12-03T23:54:39.660Z,12.32
2022-12-03T23:57:07.898Z,11.20
2022-12-03T23:59:36.157Z,14.10
